createdAt,value
2023-05-20T00:01:41.678Z,13.90
2023-05-20T00:04:09.518Z,13.81
2023-05-20T00:06:38.555Z,13.77
2023-05-20T00:09:06.170Z,13.63
2023-05-20T00:11:34.001Z,14.38
2023-05-20T00:14:01.740Z,14.73
2023-05-20T00:16:29.451Z,15.21
2023-05-20T00:18:58.533Z,14.25
2023-05-20T00:21:34.171Z,14.38
2023-05-20T00:24:03.321Z,14.92
2023-05-20T00:26:31.156Z,14.44
2023-05-20T00:28:59.146Z,14.49
2023-05-20T00:31:27.282Z,13.98
2023-05-20T00:33:55.233Z,14.29
2023-05-20T00:36:23.252Z,13.78
2023-05-20T00:38:51.076Z,14.24
2023-05-20T00:41:30.137Z,15.00
2023-05-20T00:43:59.287Z,14.78
2023-05-20T00:46:29.297Z,15.37
2023-05-20T00:49:00.391Z,15.34
2023-05-20T00:51:28.516Z,15.85
2023-05-20T00:53:59.304Z,15.86
2023-05-20T00:56:28.864Z,15.68
2023-05-20T00:58:58.142Z,15.89
2023-05-20T01:01:25.779Z,15.62
2023-05-20T01:03:54.840Z,15.37
2023-05-20T01:06:22.748Z,15.24
2023-05-20T01:08:50.547Z,15.42
2023-05-20T01:11:26.512Z,15.74
2023-05-20T01:14:03.580Z,16.01
2023-05-20T01:16:33.408Z,15.91
2023-05-20T01:19:04.291Z,16.11
2023-05-20T01:21:33.916Z,16.14
2023-05-20T01:24:04.199Z,15.83
2023-05-20T01:26:33.348Z,15.22
2023-05-20T01:29:01.123Z,14.22
2023-05-20T01:31:39.509Z,14.39
2023-05-20T01:34:07.893Z,15.17
2023-05-20T01:36:37.336Z,15.48
2023-05-20T01:39:07.360Z,15.60
2023-05-20T01:41:37.399Z,14.95
2023-05-20T01:44:05.437Z,15.38
2023-05-20T01:46:33.679Z,15.26
2023-05-20T01:49:04.347Z,15.09
2023-05-20T01:51:32.297Z,14.67
2023-05-20T01:54:02.283Z,14.03
2023-05-20T01:56:31.497Z,13.80
2023-05-20T01:58:59.195Z,13.67
2023-05-20T02:01:26.831Z,13.71
2023-05-20T02:03:54.470Z,14.37
2023-05-20T02:06:22.184Z,14.47
2023-05-20T02:08:49.932Z,14.40
2023-05-20T02:11:17.707Z,13.41
2023-05-20T02:13:46.704Z,13.15
2023-05-20T02:16:14.581Z,13.59
2023-05-20T02:18:42.486Z,13.13
2023-05-20T02:21:11.527Z,12.97
2023-05-20T02:23:39.392Z,12.99
2023-05-20T02:26:07.122Z,13.05
2023-05-20T02:28:34.796Z,13.12
2023-05-20T02:31:03.885Z,13.13
2023-05-20T02:33:31.524Z,13.13
2023-05-20T02:35:59.238Z,13.24
2023-05-20T02:38:27.046Z,13.53
2023-05-20T02:40:55.899Z,13.52
2023-05-20T02:43:23.504Z,13.77
2023-05-20T02:45:51.096Z,14.38
2023-05-20T02:48:20.050Z,14.52
2023-05-20T02:50:48.150Z,14.90
2023-05-20T02:53:15.777Z,14.64
2023-05-20T02:55:45.641Z,14.08
2023-05-20T02:58:14.441Z,14.25
2023-05-20T03:00:42.077Z,14.39
2023-05-20T03:03:10.499Z,14.54
2023-05-20T03:05:39.603Z,14.88
2023-05-20T03:08:09.707Z,14.95
2023-05-20T03:10:37.559Z,14.98
2023-05-20T03:13:06.129Z,14.83
2023-05-20T03:15:34.515Z,14.55
2023-05-20T03:18:02.544Z,14.95
2023-05-20T03:20:31.205Z,14.21
2023-05-20T03:23:00.261Z,14.28
2023-05-20T03:25:29.085Z,14.30
2023-05-20T03:27:57.146Z,14.26
2023-05-20T03:30:24.821Z,13.28
2023-05-20T03:32:53.001Z,14.08
2023-05-20T03:35:20.686Z,14.52
2023-05-20T03:37:49.570Z,14.67
2023-05-20T03:40:19.095Z,14.91
2023-05-20T03:42:46.770Z,14.70
2023-05-20T03:45:14.431Z,14.82
2023-05-20T03:47:42.170Z,14.89
2023-05-20T03:50:10.655Z,14.68
2023-05-20T03:52:38.478Z,13.67
2023-05-20T03:55:07.115Z,14.39
2023-05-20T03:57:36.202Z,14.55
2023-05-20T04:00:04.456Z,14.53
2023-05-20T04:02:32.272Z,14.55
2023-05-20T04:04:59.979Z,14.39
2023-05-20T04:07:27.913Z,14.94
2023-05-20T04:09:55.535Z,15.04
2023-05-20T04:12:23.137Z,14.67
2023-05-20T04:14:52.139Z,14.90
2023-05-20T04:17:19.783Z,15.02
2023-05-20T04:19:47.407Z,14.97
2023-05-20T04:22:14.969Z,14.19
2023-05-20T04:24:42.819Z,14.36
2023-05-20T04:27:10.453Z,14.13
2023-05-20T04:29:38.343Z,14.69
2023-05-20T04:32:07.836Z,14.57
2023-05-20T04:34:35.549Z,14.64
2023-05-20T04:37:03.388Z,14.63
2023-05-20T04:39:34.250Z,14.32
2023-05-20T04:42:02.236Z,13.81
2023-05-20T04:44:29.830Z,13.91
2023-05-20T04:46:57.587Z,13.80
2023-05-20T04:49:27.096Z,13.71
2023-05-20T04:51:55.068Z,14.53
2023-05-20T04:54:22.765Z,15.05
2023-05-20T04:56:50.541Z,15.28
2023-05-20T04:59:18.158Z,14.66
2023-05-20T05:01:45.879Z,15.22
2023-05-20T05:04:13.655Z,15.18
2023-05-20T05:06:43.958Z,15.45
2023-05-20T05:09:12.605Z,14.98
2023-05-20T05:11:40.573Z,14.62
2023-05-20T05:14:08.797Z,14.31
2023-05-20T05:16:36.489Z,14.77
2023-05-20T05:19:04.396Z,14.98
2023-05-20T05:21:32.065Z,14.74
2023-05-20T05:24:01.164Z,14.24
2023-05-20T05:26:29.213Z,14.73
2023-05-20T05:28:56.819Z,14.55
2023-05-20T05:31:24.681Z,14.72
2023-05-20T05:33:52.333Z,15.08
2023-05-20T05:36:20.001Z,15.13
2023-05-20T05:38:48.697Z,15.33
2023-05-20T05:41:18.355Z,15.30
2023-05-20T05:43:46.022Z,14.97
2023-05-20T05:46:13.806Z,15.47
2023-05-20T05:48:41.466Z,15.11
2023-05-20T05:51:09.535Z,15.28
2023-05-20T05:53:38.134Z,15.40
2023-05-20T05:56:07.002Z,15.69
2023-05-20T05:58:37.453Z,15.30
2023-05-20T06:01:05.277Z,16.32
2023-05-20T06:03:33.162Z,15.93
2023-05-20T06:06:01.058Z,16.56
2023-05-20T06:08:28.720Z,16.86
2023-05-20T06:10:56.609Z,17.96
2023-05-20T06:13:24.552Z,17.55
2023-05-20T06:15:53.789Z,16.78
2023-05-20T06:18:21.535Z,16.94
2023-05-20T06:20:57.372Z,17.32
2023-05-20T06:23:25.450Z,17.87
2023-05-20T06:25:53.350Z,18.36
2023-05-20T06:28:21.015Z,18.26
2023-05-20T06:30:48.752Z,15.68
2023-05-20T06:33:17.854Z,14.69
2023-05-20T06:35:47.202Z,15.28
2023-05-20T06:38:14.859Z,16.72
2023-05-20T06:40:42.622Z,18.18
2023-05-20T06:43:10.326Z,17.87
2023-05-20T06:45:38.206Z,19.33
2023-05-20T06:48:07.828Z,18.49
2023-05-20T06:50:37.182Z,17.47
2023-05-20T06:53:05.164Z,18.15
2023-05-20T06:55:34.163Z,18.99
2023-05-20T06:58:02.705Z,18.57
2023-05-20T07:00:30.546Z,18.19
2023-05-20T07:02:58.247Z,17.90
2023-05-20T07:05:26.046Z,18.96
2023-05-20T07:07:56.136Z,19.85
2023-05-20T07:10:24.237Z,20.20
2023-05-20T07:12:51.925Z,20.18
2023-05-20T07:15:20.615Z,20.71
2023-05-20T07:17:48.243Z,20.91
2023-05-20T07:20:16.467Z,20.57
2023-05-20T07:22:44.169Z,19.27
2023-05-20T07:25:13.295Z,18.55
2023-05-20T07:27:42.331Z,18.61
2023-05-20T07:30:10.535Z,18.90
2023-05-20T07:32:38.567Z,19.65
2023-05-20T07:35:06.894Z,18.46
2023-05-20T07:37:34.590Z,17.82
2023-05-20T07:40:02.345Z,17.99
2023-05-20T07:42:31.418Z,17.56
2023-05-20T07:45:01.353Z,17.91
2023-05-20T07:47:29.320Z,17.59
2023-05-20T07:49:57.113Z,16.83
2023-05-20T07:52:25.064Z,16.09
2023-05-20T07:54:52.693Z,15.65
2023-05-20T07:57:20.326Z,15.32
2023-05-20T07:59:49.415Z,15.95
2023-05-20T08:02:17.553Z,15.91
2023-05-20T08:04:45.240Z,16.15
2023-05-20T08:07:13.170Z,18.67
2023-05-20T08:09:41.119Z,17.69
2023-05-20T08:12:09.276Z,18.55
2023-05-20T08:14:37.053Z,19.09
2023-05-20T08:17:06.493Z,19.18
2023-05-20T08:19:34.426Z,19.34
2023-05-20T08:22:02.336Z,19.32
2023-05-20T08:24:29.929Z,17.80
2023-05-20T08:26:57.647Z,17.31
2023-05-20T08:29:25.378Z,16.48
2023-05-20T08:31:54.753Z,18.36
2023-05-20T08:34:23.910Z,20.04
2023-05-20T08:36:51.717Z,21.22
2023-05-20T08:39:19.618Z,20.99
2023-05-20T08:41:47.708Z,19.80
2023-05-20T08:44:19.061Z,19.92
2023-05-20T08:46:48.872Z,21.11
2023-05-20T08:49:17.253Z,20.78
2023-05-20T08:51:46.541Z,19.27
2023-05-20T08:54:15.361Z,20.06
2023-05-20T08:56:44.299Z,20.51
2023-05-20T08:59:13.106Z,19.80
2023-05-20T09:01:43.285Z,20.40
2023-05-20T09:04:11.255Z,19.49
2023-05-20T09:06:47.465Z,18.38
2023-05-20T09:09:15.582Z,16.41
2023-05-20T09:11:43.545Z,16.68
2023-05-20T09:14:11.219Z,18.12
2023-05-20T09:16:40.064Z,19.24
2023-05-20T09:19:08.330Z,17.93
2023-05-20T09:21:36.311Z,17.00
2023-05-20T09:24:05.743Z,17.45
2023-05-20T09:26:33.614Z,18.00
2023-05-20T09:29:02.535Z,19.22
2023-05-20T09:31:32.963Z,18.60
2023-05-20T09:34:03.595Z,19.52
2023-05-20T09:36:35.232Z,20.39
2023-05-20T09:39:07.941Z,20.44
2023-05-20T09:41:42.636Z,19.62
2023-05-20T09:44:11.933Z,18.78
2023-05-20T09:46:41.318Z,19.65
2023-05-20T09:49:11.453Z,20.70
2023-05-20T09:51:41.810Z,19.59
2023-05-20T09:54:13.030Z,20.45
2023-05-20T09:56:41.394Z,19.44
2023-05-20T09:59:10.501Z,19.37
2023-05-20T10:01:38.482Z,19.81
2023-05-20T10:04:09.180Z,20.72
2023-05-20T10:07:08.182Z,21.17
2023-05-20T10:09:55.774Z,21.14
2023-05-20T10:12:33.425Z,18.33
2023-05-20T10:15:16.661Z,19.50
2023-05-20T10:18:01.969Z,18.95
2023-05-20T10:20:31.684Z,18.48
2023-05-20T10:22:59.662Z,18.50
2023-05-20T10:25:28.896Z,18.04
2023-05-20T10:28:09.240Z,19.07
2023-05-20T10:30:41.557Z,18.69
2023-05-20T10:33:18.828Z,18.88
2023-05-20T10:35:52.900Z,18.71
2023-05-20T10:38:21.458Z,16.67
2023-05-20T10:40:51.428Z,15.73
2023-05-20T10:43:27.456Z,15.96
2023-05-20T10:45:57.128Z,15.39
2023-05-20T10:48:27.741Z,16.09
2023-05-20T10:50:58.958Z,16.77
2023-05-20T10:53:34.006Z,16.59
2023-05-20T10:56:06.703Z,16.43
2023-05-20T10:58:40.474Z,16.38
2023-05-20T11:01:10.749Z,17.14
2023-05-20T11:03:40.437Z,17.61
2023-05-20T11:06:12.213Z,16.74
2023-05-20T11:08:40.216Z,16.79
2023-05-20T11:11:12.366Z,17.55
2023-05-20T11:13:42.030Z,15.93
2023-05-20T11:16:09.887Z,15.83
2023-05-20T11:18:37.684Z,15.74
2023-05-20T11:21:05.414Z,15.28
2023-05-20T11:23:33.305Z,15.46
2023-05-20T11:26:01.422Z,15.16
2023-05-20T11:28:30.765Z,14.89
2023-05-20T11:30:59.950Z,15.75
2023-05-20T11:33:27.888Z,16.41
2023-05-20T11:35:57.118Z,18.33
2023-05-20T11:38:24.928Z,18.47
2023-05-20T11:40:54.844Z,18.01
2023-05-20T11:43:24.120Z,18.98
2023-05-20T11:45:56.690Z,19.79
2023-05-20T11:48:24.757Z,16.70
2023-05-20T11:50:54.768Z,17.02
2023-05-20T11:53:24.165Z,17.66
2023-05-20T11:55:54.909Z,16.70
2023-05-20T11:58:25.080Z,16.43
2023-05-20T12:00:59.565Z,17.55
2023-05-20T12:03:30.243Z,18.57
2023-05-20T12:06:01.407Z,18.89
2023-05-20T12:08:29.316Z,19.55
2023-05-20T12:10:58.373Z,20.02
2023-05-20T12:13:27.809Z,17.03
2023-05-20T12:15:57.041Z,15.38
2023-05-20T12:18:24.735Z,16.45
2023-05-20T12:20:52.781Z,15.91
2023-05-20T12:23:20.530Z,16.37
2023-05-20T12:25:48.185Z,17.14
2023-05-20T12:28:15.972Z,18.20
2023-05-20T12:30:43.878Z,18.51
2023-05-20T12:33:15.201Z,16.40
2023-05-20T12:35:44.021Z,16.70
2023-05-20T12:38:12.339Z,17.21
2023-05-20T12:40:40.057Z,16.57
2023-05-20T12:43:07.962Z,18.09
2023-05-20T12:45:35.603Z,18.73
2023-05-20T12:48:04.297Z,18.59
2023-05-20T12:50:34.003Z,19.23
2023-05-20T12:53:01.980Z,19.32
2023-05-20T12:55:29.607Z,19.47
2023-05-20T12:57:57.306Z,20.06
2023-05-20T13:00:24.993Z,19.55
2023-05-20T13:02:52.837Z,18.85
2023-05-20T13:05:22.199Z,18.58
2023-05-20T13:07:51.135Z,17.50
2023-05-20T13:10:18.899Z,18.45
2023-05-20T13:12:46.659Z,18.58
2023-05-20T13:15:14.990Z,17.75
2023-05-20T13:17:42.901Z,17.75
2023-05-20T13:20:11.807Z,17.88
2023-05-20T13:22:39.553Z,17.92
2023-05-20T13:25:11.588Z,17.75
2023-05-20T13:27:39.249Z,17.79
2023-05-20T13:30:08.494Z,18.26
2023-05-20T13:32:36.391Z,18.29
2023-05-20T13:35:04.697Z,18.22
2023-05-20T13:37:32.420Z,18.76
2023-05-20T13:40:00.156Z,18.51
2023-05-20T13:42:29.146Z,17.92
2023-05-20T13:44:56.830Z,17.47
2023-05-20T13:47:24.608Z,17.65
2023-05-20T13:49:52.357Z,17.39
2023-05-20T13:52:20.061Z,17.67
2023-05-20T13:54:47.771Z,17.43
2023-05-20T13:57:15.499Z,17.73
2023-05-20T13:59:44.549Z,18.09
2023-05-20T14:02:12.294Z,17.88
2023-05-20T14:04:40.063Z,17.90
2023-05-20T14:07:09.854Z,18.55
2023-05-20T14:09:40.296Z,18.23
2023-05-20T14:12:08.092Z,17.62
2023-05-20T14:14:35.928Z,17.72
2023-05-20T14:17:05.250Z,18.16
2023-05-20T14:19:34.620Z,18.52
2023-05-20T14:22:02.388Z,18.12
2023-05-20T14:24:30.067Z,18.64
2023-05-20T14:26:57.923Z,18.07
2023-05-20T14:29:25.793Z,18.78
2023-05-20T14:31:53.469Z,18.45
2023-05-20T14:34:22.594Z,18.51
2023-05-20T14:36:50.227Z,17.72
2023-05-20T14:39:18.007Z,17.84
2023-05-20T14:41:45.918Z,18.91
2023-05-20T14:44:13.566Z,18.06
2023-05-20T14:46:41.286Z,19.08
2023-05-20T14:49:09.028Z,19.48
2023-05-20T14:51:37.960Z,18.52
2023-05-20T14:54:05.544Z,18.25
2023-05-20T14:56:33.303Z,17.90
2023-05-20T14:59:01.033Z,17.83
2023-05-20T15:01:28.778Z,19.02
2023-05-20T15:03:56.489Z,18.44
2023-05-20T15:06:24.517Z,17.97
2023-05-20T15:08:53.532Z,17.85
2023-05-20T15:11:21.164Z,17.56
2023-05-20T15:13:48.770Z,17.77
2023-05-20T15:16:16.840Z,17.55
2023-05-20T15:18:44.696Z,17.42
2023-05-20T15:21:12.589Z,17.47
2023-05-20T15:23:40.606Z,17.66
2023-05-20T15:26:10.023Z,17.43
2023-05-20T15:28:37.697Z,17.40
2023-05-20T15:31:05.773Z,17.09
2023-05-20T15:33:34.368Z,17.06
2023-05-20T15:36:02.002Z,17.39
2023-05-20T15:38:29.950Z,17.21
2023-05-20T15:40:57.618Z,17.05
2023-05-20T15:43:26.840Z,16.84
2023-05-20T15:45:54.629Z,17.01
2023-05-20T15:48:22.342Z,17.24
2023-05-20T15:50:50.242Z,17.21
2023-05-20T15:53:17.854Z,17.90
2023-05-20T15:55:45.596Z,18.66
2023-05-20T15:58:13.595Z,18.62
2023-05-20T16:00:42.729Z,19.05
2023-05-20T16:03:10.431Z,18.48
2023-05-20T16:05:38.504Z,18.31
2023-05-20T16:08:06.515Z,18.03
2023-05-20T16:10:34.742Z,18.08
2023-05-20T16:13:03.581Z,18.20
2023-05-20T16:15:31.191Z,17.58
2023-05-20T16:18:00.628Z,17.64
2023-05-20T16:20:29.875Z,17.40
2023-05-20T16:22:57.683Z,17.40
2023-05-20T16:25:25.844Z,17.66
2023-05-20T16:27:53.627Z,17.59
2023-05-20T16:30:25.688Z,17.90
2023-05-20T16:32:53.338Z,17.89
2023-05-20T16:35:23.528Z,18.13
2023-05-20T16:37:53.661Z,18.37
2023-05-20T16:40:21.561Z,17.53
2023-05-20T16:42:49.279Z,17.60
2023-05-20T16:45:17.628Z,17.89
2023-05-20T16:47:45.624Z,17.80
2023-05-20T16:50:13.344Z,17.46
2023-05-20T16:52:43.856Z,17.62
2023-05-20T16:55:11.600Z,17.40
2023-05-20T16:57:39.248Z,17.58
2023-05-20T17:00:08.271Z,18.29
2023-05-20T17:02:35.928Z,17.43
2023-05-20T17:05:03.784Z,17.61
2023-05-20T17:07:31.687Z,17.83
2023-05-20T17:10:01.252Z,18.05
2023-05-20T17:12:29.041Z,17.86
2023-05-20T17:14:56.667Z,18.07
2023-05-20T17:17:24.285Z,17.60
2023-05-20T17:19:51.914Z,18.52
2023-05-20T17:22:19.636Z,18.97
2023-05-20T17:24:47.431Z,18.25
2023-05-20T17:27:16.482Z,18.23
2023-05-20T17:29:44.423Z,18.02
2023-05-20T17:32:12.040Z,18.07
2023-05-20T17:34:39.845Z,17.71
2023-05-20T17:37:07.509Z,17.82
2023-05-20T17:39:35.212Z,18.36
2023-05-20T17:42:02.934Z,18.85
2023-05-20T17:44:31.906Z,18.98
2023-05-20T17:46:59.564Z,18.35
2023-05-20T17:49:27.233Z,17.98
2023-05-20T17:51:54.874Z,17.94
2023-05-20T17:54:22.721Z,17.40
2023-05-20T17:56:50.316Z,17.41
2023-05-20T17:59:18.049Z,17.43
2023-05-20T18:01:47.047Z,17.30
2023-05-20T18:04:14.966Z,18.04
2023-05-20T18:06:43.027Z,17.57
2023-05-20T18:09:12.774Z,17.34
2023-05-20T18:11:40.499Z,17.68
2023-05-20T18:14:08.161Z,18.32
2023-05-20T18:16:35.998Z,17.37
2023-05-20T18:19:05.492Z,17.50
2023-05-20T18:21:34.192Z,17.25
2023-05-20T18:24:09.370Z,17.48
2023-05-20T18:26:37.329Z,17.12
2023-05-20T18:29:05.018Z,17.15
2023-05-20T18:31:35.006Z,16.94
2023-05-20T18:34:02.728Z,16.13
2023-05-20T18:36:31.993Z,15.50
2023-05-20T18:38:59.603Z,15.62
2023-05-20T18:41:35.705Z,15.03
2023-05-20T18:44:14.452Z,15.01
2023-05-20T18:46:42.560Z,15.20
2023-05-20T18:49:10.886Z,15.24
2023-05-20T18:51:42.139Z,15.10
2023-05-20T18:54:11.719Z,15.07
2023-05-20T18:56:39.304Z,14.88
2023-05-20T18:59:08.315Z,15.01
2023-05-20T19:01:35.949Z,15.33
2023-05-20T19:04:03.819Z,15.80
2023-05-20T19:06:31.716Z,16.42
2023-05-20T19:09:00.691Z,16.68
2023-05-20T19:11:28.657Z,16.74
2023-05-20T19:13:56.420Z,16.69
2023-05-20T19:16:24.514Z,16.47
2023-05-20T19:18:52.310Z,16.41
2023-05-20T19:21:19.964Z,16.02
2023-05-20T19:23:47.582Z,15.94
2023-05-20T19:26:18.573Z,16.39
2023-05-20T19:28:46.549Z,17.29
2023-05-20T19:31:15.348Z,17.53
2023-05-20T19:33:43.024Z,17.41
2023-05-20T19:36:11.246Z,17.81
2023-05-20T19:38:39.078Z,17.94
2023-05-20T19:41:07.175Z,17.88
2023-05-20T19:43:36.198Z,17.99
2023-05-20T19:46:04.017Z,18.25
2023-05-20T19:48:31.720Z,17.75
2023-05-20T19:50:59.319Z,17.58
2023-05-20T19:53:28.229Z,17.47
2023-05-20T19:55:57.445Z,18.04
2023-05-20T19:58:25.274Z,17.96
2023-05-20T20:00:54.264Z,18.43
2023-05-20T20:03:21.868Z,18.44
2023-05-20T20:05:49.559Z,17.69
2023-05-20T20:08:17.652Z,17.64
2023-05-20T20:10:45.440Z,17.38
2023-05-20T20:13:13.061Z,17.02
2023-05-20T20:15:40.721Z,17.77
2023-05-20T20:18:09.831Z,18.29
2023-05-20T20:20:37.597Z,18.31
2023-05-20T20:23:06.229Z,18.34
2023-05-20T20:25:34.551Z,18.18
2023-05-20T20:28:02.521Z,17.14
2023-05-20T20:30:30.234Z,16.75
2023-05-20T20:32:58.144Z,16.09
2023-05-20T20:35:27.242Z,16.00
2023-05-20T20:37:54.837Z,16.06
2023-05-20T20:40:23.333Z,16.09
2023-05-20T20:42:51.666Z,16.10
2023-05-20T20:45:19.308Z,16.45
2023-05-20T20:47:47.012Z,16.29
2023-05-20T20:50:14.809Z,17.03
2023-05-20T20:52:43.808Z,17.54
2023-05-20T20:55:11.758Z,17.78
2023-05-20T20:57:39.564Z,17.95
2023-05-20T21:00:08.373Z,16.96
2023-05-20T21:02:37.509Z,16.41
2023-05-20T21:05:06.149Z,16.33
2023-05-20T21:07:34.164Z,15.97
2023-05-20T21:10:03.864Z,15.39
2023-05-20T21:12:31.745Z,15.34
2023-05-20T21:14:59.604Z,15.27
2023-05-20T21:17:27.730Z,15.33
2023-05-20T21:19:55.371Z,15.65
2023-05-20T21:22:23.018Z,15.59
2023-05-20T21:24:50.868Z,15.84
2023-05-20T21:27:21.237Z,16.70
2023-05-20T21:29:48.861Z,16.41
2023-05-20T21:32:16.492Z,17.04
2023-05-20T21:34:44.264Z,17.53
2023-05-20T21:37:11.945Z,17.79
2023-05-20T21:39:39.659Z,17.87
2023-05-20T21:42:07.678Z,17.97
2023-05-20T21:44:36.946Z,17.69
2023-05-20T21:47:05.213Z,17.19
2023-05-20T21:49:34.713Z,17.81
2023-05-20T21:52:03.967Z,17.97
2023-05-20T21:54:31.882Z,17.34
2023-05-20T21:56:59.561Z,17.11
2023-05-20T21:59:27.376Z,17.87
2023-05-20T22:01:56.489Z,17.06
2023-05-20T22:04:24.234Z,16.33
2023-05-20T22:06:51.909Z,15.89
2023-05-20T22:09:20.932Z,15.90
2023-05-20T22:11:48.564Z,16.59
2023-05-20T22:14:16.350Z,16.96
2023-05-20T22:16:45.024Z,17.12
2023-05-20T22:19:14.793Z,16.84
2023-05-20T22:21:50.163Z,17.14
2023-05-20T22:24:18.711Z,17.57
2023-05-20T22:26:46.539Z,17.68
2023-05-20T22:29:14.220Z,17.76
2023-05-20T22:31:41.950Z,16.59
2023-05-20T22:34:09.557Z,17.19
2023-05-20T22:36:38.675Z,17.58
2023-05-20T22:39:06.368Z,17.58
2023-05-20T22:41:34.067Z,16.95
2023-05-20T22:44:01.814Z,16.73
2023-05-20T22:46:29.523Z,15.71
2023-05-20T22:48:57.256Z,15.44
2023-05-20T22:51:24.914Z,15.62
2023-05-20T22:53:54.972Z,15.95
2023-05-20T22:56:22.602Z,16.06
2023-05-20T22:58:50.356Z,16.60
2023-05-20T23:01:20.273Z,17.29
2023-05-20T23:03:48.049Z,17.39
2023-05-20T23:06:15.681Z,17.09
2023-05-20T23:08:43.345Z,17.02
2023-05-20T23:11:12.439Z,17.23
2023-05-20T23:13:40.259Z,16.51
2023-05-20T23:16:08.958Z,16.22
2023-05-20T23:18:36.709Z,16.17
2023-05-20T23:21:04.662Z,15.79
2023-05-20T23:23:32.481Z,15.31
2023-05-20T23:26:00.455Z,15.13
2023-05-20T23:28:29.418Z,15.11
2023-05-20T23:30:56.981Z,15.27
2023-05-20T23:33:25.696Z,16.12
2023-05-20T23:35:53.633Z,16.01
2023-05-20T23:38:21.617Z,16.25
2023-05-20T23:40:50.174Z,16.28
2023-05-20T23:43:17.740Z,15.99
2023-05-20T23:45:46.796Z,16.12
2023-05-20T23:48:14.409Z,15.37
2023-05-20T23:50:42.113Z,14.54
2023-05-20T23:53:09.739Z,14.24
2023-05-20T23:55:37.474Z,13.72
2023-05-20T23:58:05.504Z,13.75
